sensor_id;sensor_type;location;lat;lon;timestamp;P1;durP1;ratioP1;P2;durP2;ratioP2
42714;SDS011;28351;51.480;5.706;2022-07-29T00:01:15;7.90;;;2.47;;
42714;SDS011;28351;51.480;5.706;2022-07-29T00:03:40;7.18;;;2.97;;
42714;SDS011;28351;51.480;5.706;2022-07-29T00:06:06;7.35;;;2.78;;
42714;SDS011;28351;51.480;5.706;2022-07-29T00:08:32;14.55;;;3.33;;
42714;SDS011;28351;51.480;5.706;2022-07-29T00:10:57;8.25;;;2.78;;
42714;SDS011;28351;51.480;5.706;2022-07-29T00:13:23;10.20;;;3.40;;
42714;SDS011;28351;51.480;5.706;2022-07-29T00:15:48;8.70;;;3.10;;
42714;SDS011;28351;51.480;5.706;2022-07-29T00:18:14;4.53;;;2.95;;
42714;SDS011;28351;51.480;5.706;2022-07-29T00:20:40;3.55;;;2.50;;
42714;SDS011;28351;51.480;5.706;2022-07-29T00:23:05;2.95;;;2.45;;
42714;SDS011;28351;51.480;5.706;2022-07-29T00:25:31;8.85;;;2.63;;
42714;SDS011;28351;51.480;5.706;2022-07-29T00:27:57;8.60;;;3.30;;
42714;SDS011;28351;51.480;5.706;2022-07-29T00:30:22;5.88;;;2.92;;
42714;SDS011;28351;51.480;5.706;2022-07-29T00:32:48;6.68;;;2.95;;
42714;SDS011;28351;51.480;5.706;2022-07-29T00:35:13;5.00;;;2.60;;
42714;SDS011;28351;51.480;5.706;2022-07-29T00:37:58;6.07;;;3.08;;
42714;SDS011;28351;51.480;5.706;2022-07-29T00:40:23;5.95;;;3.42;;
42714;SDS011;28351;51.480;5.706;2022-07-29T00:42:52;4.97;;;3.03;;
42714;SDS011;28351;51.480;5.706;2022-07-29T00:45:18;5.90;;;3.08;;
42714;SDS011;28351;51.480;5.706;2022-07-29T00:47:44;4.38;;;3.00;;
42714;SDS011;28351;51.480;5.706;2022-07-29T00:50:10;4.93;;;2.90;;
42714;SDS011;28351;51.480;5.706;2022-07-29T00:52:37;5.30;;;3.05;;
42714;SDS011;28351;51.480;5.706;2022-07-29T00:55:05;4.85;;;2.95;;
42714;SDS011;28351;51.480;5.706;2022-07-29T00:57:39;4.93;;;3.22;;
42714;SDS011;28351;51.480;5.706;2022-07-29T01:00:06;4.38;;;3.05;;
42714;SDS011;28351;51.480;5.706;2022-07-29T01:05:00;5.03;;;3.28;;
42714;SDS011;28351;51.480;5.706;2022-07-29T01:07:27;5.40;;;3.03;;
42714;SDS011;28351;51.480;5.706;2022-07-29T01:09:54;4.00;;;3.42;;
42714;SDS011;28351;51.480;5.706;2022-07-29T01:12:26;5.45;;;3.88;;
42714;SDS011;28351;51.480;5.706;2022-07-29T01:14:54;7.72;;;4.10;;
42714;SDS011;28351;51.480;5.706;2022-07-29T01:17:24;4.82;;;3.97;;
42714;SDS011;28351;51.480;5.706;2022-07-29T01:25:30;5.72;;;4.10;;
42714;SDS011;28351;51.480;5.706;2022-07-29T01:31:11;5.22;;;3.90;;
42714;SDS011;28351;51.480;5.706;2022-07-29T01:33:45;4.75;;;3.60;;
42714;SDS011;28351;51.480;5.706;2022-07-29T01:36:29;7.00;;;4.07;;
42714;SDS011;28351;51.480;5.706;2022-07-29T01:42:12;4.35;;;3.90;;
42714;SDS011;28351;51.480;5.706;2022-07-29T01:47:31;6.53;;;3.90;;
42714;SDS011;28351;51.480;5.706;2022-07-29T01:50:03;5.70;;;4.18;;
42714;SDS011;28351;51.480;5.706;2022-07-29T01:52:38;8.85;;;4.22;;
42714;SDS011;28351;51.480;5.706;2022-07-29T01:55:12;5.40;;;4.40;;
42714;SDS011;28351;51.480;5.706;2022-07-29T01:57:40;5.10;;;3.92;;
42714;SDS011;28351;51.480;5.706;2022-07-29T02:00:08;8.57;;;4.22;;
42714;SDS011;28351;51.480;5.706;2022-07-29T02:02:35;5.97;;;4.50;;
42714;SDS011;28351;51.480;5.706;2022-07-29T02:05:03;7.20;;;4.03;;
42714;SDS011;28351;51.480;5.706;2022-07-29T02:07:32;5.72;;;4.07;;
42714;SDS011;28351;51.480;5.706;2022-07-29T02:09:58;5.63;;;3.67;;
42714;SDS011;28351;51.480;5.706;2022-07-29T02:12:26;6.40;;;3.65;;
42714;SDS011;28351;51.480;5.706;2022-07-29T02:14:53;4.50;;;3.35;;
42714;SDS011;28351;51.480;5.706;2022-07-29T02:17:23;6.95;;;3.50;;
42714;SDS011;28351;51.480;5.706;2022-07-29T02:19:54;6.03;;;3.75;;
42714;SDS011;28351;51.480;5.706;2022-07-29T02:22:24;6.10;;;3.60;;
42714;SDS011;28351;51.480;5.706;2022-07-29T02:24:51;6.00;;;3.97;;
42714;SDS011;28351;51.480;5.706;2022-07-29T02:27:18;4.60;;;3.72;;
42714;SDS011;28351;51.480;5.706;2022-07-29T02:29:45;4.55;;;3.58;;
42714;SDS011;28351;51.480;5.706;2022-07-29T02:32:13;6.55;;;4.00;;
42714;SDS011;28351;51.480;5.706;2022-07-29T02:34:40;4.35;;;3.17;;
42714;SDS011;28351;51.480;5.706;2022-07-29T02:37:09;6.57;;;3.67;;
42714;SDS011;28351;51.480;5.706;2022-07-29T02:39:36;5.40;;;3.45;;
42714;SDS011;28351;51.480;5.706;2022-07-29T02:42:05;4.97;;;3.57;;
42714;SDS011;28351;51.480;5.706;2022-07-29T02:44:33;5.78;;;3.83;;
42714;SDS011;28351;51.480;5.706;2022-07-29T02:50:02;5.18;;;3.88;;
42714;SDS011;28351;51.480;5.706;2022-07-29T02:52:40;7.43;;;3.83;;
42714;SDS011;28351;51.480;5.706;2022-07-29T03:00:31;6.93;;;3.78;;
42714;SDS011;28351;51.480;5.706;2022-07-29T03:03:01;3.88;;;3.35;;
42714;SDS011;28351;51.480;5.706;2022-07-29T03:05:31;9.95;;;4.07;;
42714;SDS011;28351;51.480;5.706;2022-07-29T03:07:58;7.13;;;3.90;;
42714;SDS011;28351;51.480;5.706;2022-07-29T03:12:52;6.50;;;3.35;;
42714;SDS011;28351;51.480;5.706;2022-07-29T03:15:19;5.45;;;3.97;;
42714;SDS011;28351;51.480;5.706;2022-07-29T03:17:45;4.50;;;3.88;;
42714;SDS011;28351;51.480;5.706;2022-07-29T03:20:11;7.47;;;4.53;;
42714;SDS011;28351;51.480;5.706;2022-07-29T03:22:39;7.00;;;4.00;;
42714;SDS011;28351;51.480;5.706;2022-07-29T03:25:11;4.60;;;4.10;;
42714;SDS011;28351;51.480;5.706;2022-07-29T03:27:38;12.63;;;4.75;;
42714;SDS011;28351;51.480;5.706;2022-07-29T03:30:04;5.78;;;4.00;;
42714;SDS011;28351;51.480;5.706;2022-07-29T03:32:31;7.25;;;4.25;;
42714;SDS011;28351;51.480;5.706;2022-07-29T03:34:57;5.00;;;4.15;;
42714;SDS011;28351;51.480;5.706;2022-07-29T03:37:22;5.18;;;4.20;;
42714;SDS011;28351;51.480;5.706;2022-07-29T03:39:48;5.25;;;4.40;;
42714;SDS011;28351;51.480;5.706;2022-07-29T03:42:16;4.93;;;4.43;;
42714;SDS011;28351;51.480;5.706;2022-07-29T03:44:45;5.80;;;4.55;;
42714;SDS011;28351;51.480;5.706;2022-07-29T03:47:13;6.00;;;4.50;;
42714;SDS011;28351;51.480;5.706;2022-07-29T03:52:09;6.03;;;4.28;;
42714;SDS011;28351;51.480;5.706;2022-07-29T03:54:35;4.97;;;4.47;;
42714;SDS011;28351;51.480;5.706;2022-07-29T03:57:01;6.22;;;4.47;;
42714;SDS011;28351;51.480;5.706;2022-07-29T03:59:28;7.43;;;5.03;;
42714;SDS011;28351;51.480;5.706;2022-07-29T04:01:55;7.40;;;4.45;;
42714;SDS011;28351;51.480;5.706;2022-07-29T04:04:22;8.80;;;4.80;;
42714;SDS011;28351;51.480;5.706;2022-07-29T04:06:51;7.07;;;4.70;;
42714;SDS011;28351;51.480;5.706;2022-07-29T04:09:17;7.97;;;4.80;;
42714;SDS011;28351;51.480;5.706;2022-07-29T04:11:42;6.57;;;4.88;;
42714;SDS011;28351;51.480;5.706;2022-07-29T04:14:08;7.50;;;5.05;;
42714;SDS011;28351;51.480;5.706;2022-07-29T04:16:34;6.53;;;4.93;;
42714;SDS011;28351;51.480;5.706;2022-07-29T04:18:59;6.47;;;4.85;;
42714;SDS011;28351;51.480;5.706;2022-07-29T04:21:25;7.25;;;4.88;;
42714;SDS011;28351;51.480;5.706;2022-07-29T04:23:51;6.72;;;5.05;;
42714;SDS011;28351;51.480;5.706;2022-07-29T04:26:16;9.88;;;5.22;;
42714;SDS011;28351;51.480;5.706;2022-07-29T04:28:43;7.07;;;5.00;;
42714;SDS011;28351;51.480;5.706;2022-07-29T04:31:09;9.07;;;5.63;;
42714;SDS011;28351;51.480;5.706;2022-07-29T04:33:36;8.00;;;5.15;;
42714;SDS011;28351;51.480;5.706;2022-07-29T04:36:01;6.90;;;5.28;;
42714;SDS011;28351;51.480;5.706;2022-07-29T04:38:27;6.90;;;5.55;;
42714;SDS011;28351;51.480;5.706;2022-07-29T04:40:52;7.00;;;5.35;;
42714;SDS011;28351;51.480;5.706;2022-07-29T04:43:18;7.65;;;5.68;;
42714;SDS011;28351;51.480;5.706;2022-07-29T04:45:45;7.55;;;5.70;;
42714;SDS011;28351;51.480;5.706;2022-07-29T04:48:10;7.78;;;5.65;;
42714;SDS011;28351;51.480;5.706;2022-07-29T04:50:39;5.80;;;4.97;;
42714;SDS011;28351;51.480;5.706;2022-07-29T04:53:06;6.93;;;5.28;;
42714;SDS011;28351;51.480;5.706;2022-07-29T04:55:32;8.55;;;5.57;;
42714;SDS011;28351;51.480;5.706;2022-07-29T04:57:58;8.00;;;5.45;;
42714;SDS011;28351;51.480;5.706;2022-07-29T05:00:26;7.90;;;4.93;;
42714;SDS011;28351;51.480;5.706;2022-07-29T05:02:55;7.43;;;5.57;;
42714;SDS011;28351;51.480;5.706;2022-07-29T05:05:21;7.38;;;5.60;;
42714;SDS011;28351;51.480;5.706;2022-07-29T05:07:46;9.57;;;5.90;;
42714;SDS011;28351;51.480;5.706;2022-07-29T05:10:12;8.05;;;5.80;;
42714;SDS011;28351;51.480;5.706;2022-07-29T05:12:37;6.60;;;5.47;;
42714;SDS011;28351;51.480;5.706;2022-07-29T05:15:03;6.97;;;5.72;;
42714;SDS011;28351;51.480;5.706;2022-07-29T05:17:29;8.55;;;5.60;;
42714;SDS011;28351;51.480;5.706;2022-07-29T05:19:54;7.13;;;5.72;;
42714;SDS011;28351;51.480;5.706;2022-07-29T05:22:20;9.40;;;6.07;;
42714;SDS011;28351;51.480;5.706;2022-07-29T05:24:46;7.50;;;5.88;;
42714;SDS011;28351;51.480;5.706;2022-07-29T05:27:12;7.75;;;5.55;;
42714;SDS011;28351;51.480;5.706;2022-07-29T05:29:38;11.15;;;5.70;;
42714;SDS011;28351;51.480;5.706;2022-07-29T05:32:04;7.90;;;5.75;;
42714;SDS011;28351;51.480;5.706;2022-07-29T05:34:30;9.73;;;6.18;;
42714;SDS011;28351;51.480;5.706;2022-07-29T05:36:55;9.65;;;6.05;;
42714;SDS011;28351;51.480;5.706;2022-07-29T05:39:22;9.48;;;5.47;;
42714;SDS011;28351;51.480;5.706;2022-07-29T05:41:47;7.53;;;5.47;;
42714;SDS011;28351;51.480;5.706;2022-07-29T05:44:13;6.28;;;5.00;;
42714;SDS011;28351;51.480;5.706;2022-07-29T05:46:44;6.47;;;5.47;;
42714;SDS011;28351;51.480;5.706;2022-07-29T05:49:10;7.75;;;5.90;;
42714;SDS011;28351;51.480;5.706;2022-07-29T05:51:35;9.30;;;6.88;;
42714;SDS011;28351;51.480;5.706;2022-07-29T05:54:01;8.75;;;5.90;;
42714;SDS011;28351;51.480;5.706;2022-07-29T05:56:27;9.63;;;6.45;;
42714;SDS011;28351;51.480;5.706;2022-07-29T05:58:53;7.63;;;5.88;;
42714;SDS011;28351;51.480;5.706;2022-07-29T06:01:18;9.13;;;6.65;;
42714;SDS011;28351;51.480;5.706;2022-07-29T06:03:44;8.13;;;6.07;;
42714;SDS011;28351;51.480;5.706;2022-07-29T06:06:10;10.18;;;6.72;;
42714;SDS011;28351;51.480;5.706;2022-07-29T06:08:36;8.45;;;5.85;;
42714;SDS011;28351;51.480;5.706;2022-07-29T06:11:02;9.32;;;6.30;;
42714;SDS011;28351;51.480;5.706;2022-07-29T06:13:28;7.15;;;5.90;;
42714;SDS011;28351;51.480;5.706;2022-07-29T06:15:55;10.07;;;6.13;;
42714;SDS011;28351;51.480;5.706;2022-07-29T06:18:20;11.20;;;7.55;;
42714;SDS011;28351;51.480;5.706;2022-07-29T06:20:51;10.43;;;7.10;;
42714;SDS011;28351;51.480;5.706;2022-07-29T06:23:17;7.63;;;6.75;;
42714;SDS011;28351;51.480;5.706;2022-07-29T06:25:44;8.98;;;7.03;;
42714;SDS011;28351;51.480;5.706;2022-07-29T06:28:09;9.50;;;7.18;;
42714;SDS011;28351;51.480;5.706;2022-07-29T06:30:36;9.43;;;7.18;;
42714;SDS011;28351;51.480;5.706;2022-07-29T06:33:02;12.52;;;7.18;;
42714;SDS011;28351;51.480;5.706;2022-07-29T06:35:28;8.65;;;7.13;;
42714;SDS011;28351;51.480;5.706;2022-07-29T06:37:54;10.13;;;7.85;;
42714;SDS011;28351;51.480;5.706;2022-07-29T06:40:20;11.52;;;7.57;;
42714;SDS011;28351;51.480;5.706;2022-07-29T06:43:04;10.73;;;7.60;;
42714;SDS011;28351;51.480;5.706;2022-07-29T06:45:30;10.25;;;7.13;;
42714;SDS011;28351;51.480;5.706;2022-07-29T06:47:58;9.48;;;6.80;;
42714;SDS011;28351;51.480;5.706;2022-07-29T06:50:24;9.00;;;7.20;;
42714;SDS011;28351;51.480;5.706;2022-07-29T06:52:50;12.43;;;6.95;;
42714;SDS011;28351;51.480;5.706;2022-07-29T06:55:16;8.73;;;6.63;;
42714;SDS011;28351;51.480;5.706;2022-07-29T06:57:44;8.00;;;6.50;;
42714;SDS011;28351;51.480;5.706;2022-07-29T07:00:10;8.05;;;6.80;;
42714;SDS011;28351;51.480;5.706;2022-07-29T07:02:36;8.90;;;7.13;;
42714;SDS011;28351;51.480;5.706;2022-07-29T07:05:02;8.55;;;6.53;;
42714;SDS011;28351;51.480;5.706;2022-07-29T07:07:27;9.55;;;7.13;;
42714;SDS011;28351;51.480;5.706;2022-07-29T07:09:59;9.93;;;6.47;;
42714;SDS011;28351;51.480;5.706;2022-07-29T07:12:25;8.75;;;7.43;;
42714;SDS011;28351;51.480;5.706;2022-07-29T07:14:50;9.60;;;7.00;;
42714;SDS011;28351;51.480;5.706;2022-07-29T07:17:16;9.52;;;6.95;;
42714;SDS011;28351;51.480;5.706;2022-07-29T07:19:41;9.25;;;7.03;;
42714;SDS011;28351;51.480;5.706;2022-07-29T07:22:07;7.78;;;6.50;;
42714;SDS011;28351;51.480;5.706;2022-07-29T07:24:32;9.40;;;6.60;;
42714;SDS011;28351;51.480;5.706;2022-07-29T07:26:58;7.55;;;6.50;;
42714;SDS011;28351;51.480;5.706;2022-07-29T07:29:24;8.95;;;7.18;;
42714;SDS011;28351;51.480;5.706;2022-07-29T07:31:49;7.90;;;6.47;;
42714;SDS011;28351;51.480;5.706;2022-07-29T07:34:15;8.48;;;6.68;;
42714;SDS011;28351;51.480;5.706;2022-07-29T07:36:40;8.63;;;6.03;;
42714;SDS011;28351;51.480;5.706;2022-07-29T07:39:06;10.20;;;7.32;;
42714;SDS011;28351;51.480;5.706;2022-07-29T07:41:32;8.73;;;6.68;;
42714;SDS011;28351;51.480;5.706;2022-07-29T07:43:57;8.13;;;7.13;;
42714;SDS011;28351;51.480;5.706;2022-07-29T07:46:23;10.32;;;6.60;;
42714;SDS011;28351;51.480;5.706;2022-07-29T07:48:49;8.73;;;6.50;;
42714;SDS011;28351;51.480;5.706;2022-07-29T07:51:14;10.52;;;7.60;;
42714;SDS011;28351;51.480;5.706;2022-07-29T07:53:40;10.45;;;7.47;;
42714;SDS011;28351;51.480;5.706;2022-07-29T07:56:06;11.50;;;7.35;;
42714;SDS011;28351;51.480;5.706;2022-07-29T07:58:31;8.80;;;7.82;;
42714;SDS011;28351;51.480;5.706;2022-07-29T08:00:57;8.15;;;7.25;;
42714;SDS011;28351;51.480;5.706;2022-07-29T08:03:23;8.82;;;7.18;;
42714;SDS011;28351;51.480;5.706;2022-07-29T08:05:49;9.63;;;7.82;;
42714;SDS011;28351;51.480;5.706;2022-07-29T08:08:16;9.65;;;8.07;;
42714;SDS011;28351;51.480;5.706;2022-07-29T08:10:42;11.18;;;8.30;;
42714;SDS011;28351;51.480;5.706;2022-07-29T08:13:17;8.13;;;7.13;;
42714;SDS011;28351;51.480;5.706;2022-07-29T08:15:44;9.85;;;7.32;;
42714;SDS011;28351;51.480;5.706;2022-07-29T08:18:13;10.88;;;7.03;;
42714;SDS011;28351;51.480;5.706;2022-07-29T08:20:39;8.02;;;6.93;;
42714;SDS011;28351;51.480;5.706;2022-07-29T08:23:06;11.55;;;6.80;;
42714;SDS011;28351;51.480;5.706;2022-07-29T08:25:36;13.70;;;6.95;;
42714;SDS011;28351;51.480;5.706;2022-07-29T08:28:04;7.68;;;6.85;;
42714;SDS011;28351;51.480;5.706;2022-07-29T08:30:30;8.80;;;7.55;;
42714;SDS011;28351;51.480;5.706;2022-07-29T08:35:24;9.50;;;7.22;;
42714;SDS011;28351;51.480;5.706;2022-07-29T08:37:52;10.13;;;6.93;;
42714;SDS011;28351;51.480;5.706;2022-07-29T08:40:19;8.88;;;7.38;;
42714;SDS011;28351;51.480;5.706;2022-07-29T08:42:45;7.10;;;6.30;;
42714;SDS011;28351;51.480;5.706;2022-07-29T08:45:11;7.97;;;6.25;;
42714;SDS011;28351;51.480;5.706;2022-07-29T08:47:40;7.35;;;6.55;;
42714;SDS011;28351;51.480;5.706;2022-07-29T08:50:07;9.32;;;5.80;;
42714;SDS011;28351;51.480;5.706;2022-07-29T08:52:36;10.52;;;6.60;;
42714;SDS011;28351;51.480;5.706;2022-07-29T08:55:05;7.03;;;6.07;;
42714;SDS011;28351;51.480;5.706;2022-07-29T08:57:46;6.90;;;6.05;;
42714;SDS011;28351;51.480;5.706;2022-07-29T09:00:12;7.50;;;6.15;;
42714;SDS011;28351;51.480;5.706;2022-07-29T09:02:41;8.48;;;6.65;;
42714;SDS011;28351;51.480;5.706;2022-07-29T09:05:11;7.88;;;6.30;;
42714;SDS011;28351;51.480;5.706;2022-07-29T09:07:38;8.65;;;6.90;;
42714;SDS011;28351;51.480;5.706;2022-07-29T09:10:04;8.07;;;6.45;;
42714;SDS011;28351;51.480;5.706;2022-07-29T09:12:30;7.85;;;6.63;;
42714;SDS011;28351;51.480;5.706;2022-07-29T09:14:56;9.70;;;7.15;;
42714;SDS011;28351;51.480;5.706;2022-07-29T09:17:41;7.85;;;6.35;;
42714;SDS011;28351;51.480;5.706;2022-07-29T09:20:10;8.48;;;6.57;;
42714;SDS011;28351;51.480;5.706;2022-07-29T09:22:37;7.57;;;6.72;;
42714;SDS011;28351;51.480;5.706;2022-07-29T09:25:03;7.72;;;6.82;;
42714;SDS011;28351;51.480;5.706;2022-07-29T09:27:29;7.40;;;6.70;;
42714;SDS011;28351;51.480;5.706;2022-07-29T09:29:55;7.53;;;6.72;;
42714;SDS011;28351;51.480;5.706;2022-07-29T09:32:22;6.80;;;5.93;;
42714;SDS011;28351;51.480;5.706;2022-07-29T09:34:47;6.55;;;5.72;;
42714;SDS011;28351;51.480;5.706;2022-07-29T09:37:25;7.05;;;6.32;;
42714;SDS011;28351;51.480;5.706;2022-07-29T09:39:51;8.45;;;6.28;;
42714;SDS011;28351;51.480;5.706;2022-07-29T09:42:17;8.38;;;6.45;;
42714;SDS011;28351;51.480;5.706;2022-07-29T09:44:53;8.80;;;5.68;;
42714;SDS011;28351;51.480;5.706;2022-07-29T09:47:19;6.50;;;5.40;;
42714;SDS011;28351;51.480;5.706;2022-07-29T09:49:50;7.53;;;5.85;;
42714;SDS011;28351;51.480;5.706;2022-07-29T09:52:16;6.05;;;5.43;;
42714;SDS011;28351;51.480;5.706;2022-07-29T09:54:41;7.13;;;5.82;;
42714;SDS011;28351;51.480;5.706;2022-07-29T09:57:08;9.90;;;5.95;;
42714;SDS011;28351;51.480;5.706;2022-07-29T09:59:37;8.98;;;6.15;;
42714;SDS011;28351;51.480;5.706;2022-07-29T10:02:13;7.18;;;4.90;;
42714;SDS011;28351;51.480;5.706;2022-07-29T10:04:40;5.57;;;5.00;;
42714;SDS011;28351;51.480;5.706;2022-07-29T10:07:07;8.68;;;5.30;;
42714;SDS011;28351;51.480;5.706;2022-07-29T10:09:33;8.38;;;4.88;;
42714;SDS011;28351;51.480;5.706;2022-07-29T10:12:03;6.22;;;4.93;;
42714;SDS011;28351;51.480;5.706;2022-07-29T10:14:36;8.20;;;5.28;;
42714;SDS011;28351;51.480;5.706;2022-07-29T10:17:03;6.85;;;5.28;;
42714;SDS011;28351;51.480;5.706;2022-07-29T10:19:30;7.78;;;5.03;;
42714;SDS011;28351;51.480;5.706;2022-07-29T10:22:01;6.25;;;4.50;;
42714;SDS011;28351;51.480;5.706;2022-07-29T10:24:30;5.03;;;3.58;;
42714;SDS011;28351;51.480;5.706;2022-07-29T10:27:00;5.25;;;3.88;;
42714;SDS011;28351;51.480;5.706;2022-07-29T10:29:27;4.88;;;4.13;;
42714;SDS011;28351;51.480;5.706;2022-07-29T10:32:04;5.32;;;4.05;;
42714;SDS011;28351;51.480;5.706;2022-07-29T10:37:17;6.40;;;4.18;;
42714;SDS011;28351;51.480;5.706;2022-07-29T10:39:56;6.35;;;4.68;;
42714;SDS011;28351;51.480;5.706;2022-07-29T10:42:52;6.97;;;3.67;;
42714;SDS011;28351;51.480;5.706;2022-07-29T10:45:19;5.28;;;4.13;;
42714;SDS011;28351;51.480;5.706;2022-07-29T10:47:45;5.50;;;3.80;;
42714;SDS011;28351;51.480;5.706;2022-07-29T10:50:10;6.05;;;3.63;;
42714;SDS011;28351;51.480;5.706;2022-07-29T10:52:52;4.53;;;3.00;;
42714;SDS011;28351;51.480;5.706;2022-07-29T10:55:31;4.95;;;3.78;;
42714;SDS011;28351;51.480;5.706;2022-07-29T10:58:15;4.10;;;3.70;;
42714;SDS011;28351;51.480;5.706;2022-07-29T11:00:50;3.20;;;2.90;;
42714;SDS011;28351;51.480;5.706;2022-07-29T11:06:12;4.05;;;3.25;;
42714;SDS011;28351;51.480;5.706;2022-07-29T11:08:38;5.03;;;3.67;;
42714;SDS011;28351;51.480;5.706;2022-07-29T11:13:46;7.03;;;4.20;;
42714;SDS011;28351;51.480;5.706;2022-07-29T11:16:15;4.28;;;2.63;;
42714;SDS011;28351;51.480;5.706;2022-07-29T11:21:42;3.13;;;2.53;;
42714;SDS011;28351;51.480;5.706;2022-07-29T11:24:15;3.03;;;2.38;;
42714;SDS011;28351;51.480;5.706;2022-07-29T11:26:46;4.45;;;3.00;;
42714;SDS011;28351;51.480;5.706;2022-07-29T11:32:24;3.75;;;2.42;;
42714;SDS011;28351;51.480;5.706;2022-07-29T11:37:46;2.63;;;1.85;;
42714;SDS011;28351;51.480;5.706;2022-07-29T11:40:32;2.92;;;2.22;;
42714;SDS011;28351;51.480;5.706;2022-07-29T11:42:58;3.47;;;2.22;;
42714;SDS011;28351;51.480;5.706;2022-07-29T11:45:24;3.33;;;2.53;;
42714;SDS011;28351;51.480;5.706;2022-07-29T11:47:55;3.25;;;2.47;;
42714;SDS011;28351;51.480;5.706;2022-07-29T11:50:34;2.72;;;2.25;;
42714;SDS011;28351;51.480;5.706;2022-07-29T11:53:02;3.80;;;1.92;;
42714;SDS011;28351;51.480;5.706;2022-07-29T11:55:36;2.88;;;1.77;;
42714;SDS011;28351;51.480;5.706;2022-07-29T11:58:03;2.97;;;1.90;;
42714;SDS011;28351;51.480;5.706;2022-07-29T12:03:00;3.65;;;2.22;;
42714;SDS011;28351;51.480;5.706;2022-07-29T12:05:42;5.05;;;2.08;;
42714;SDS011;28351;51.480;5.706;2022-07-29T12:08:16;3.35;;;2.58;;
42714;SDS011;28351;51.480;5.706;2022-07-29T12:10:45;1.70;;;1.40;;
42714;SDS011;28351;51.480;5.706;2022-07-29T12:13:12;3.30;;;1.60;;
42714;SDS011;28351;51.480;5.706;2022-07-29T12:15:40;4.13;;;2.45;;
42714;SDS011;28351;51.480;5.706;2022-07-29T12:18:09;3.00;;;1.80;;
42714;SDS011;28351;51.480;5.706;2022-07-29T12:20:39;3.03;;;1.50;;
42714;SDS011;28351;51.480;5.706;2022-07-29T12:23:05;2.03;;;1.67;;
42714;SDS011;28351;51.480;5.706;2022-07-29T12:25:36;2.90;;;2.08;;
42714;SDS011;28351;51.480;5.706;2022-07-29T12:28:09;2.90;;;1.80;;
42714;SDS011;28351;51.480;5.706;2022-07-29T12:30:55;3.25;;;1.98;;
42714;SDS011;28351;51.480;5.706;2022-07-29T12:33:22;2.53;;;1.90;;
42714;SDS011;28351;51.480;5.706;2022-07-29T12:36:02;2.22;;;2.03;;
42714;SDS011;28351;51.480;5.706;2022-07-29T12:38:28;2.42;;;1.92;;
42714;SDS011;28351;51.480;5.706;2022-07-29T12:40:54;2.40;;;2.05;;
42714;SDS011;28351;51.480;5.706;2022-07-29T12:43:20;3.05;;;2.28;;
42714;SDS011;28351;51.480;5.706;2022-07-29T12:45:54;4.30;;;2.78;;
42714;SDS011;28351;51.480;5.706;2022-07-29T12:48:34;3.08;;;2.55;;
42714;SDS011;28351;51.480;5.706;2022-07-29T12:51:04;3.15;;;2.38;;
42714;SDS011;28351;51.480;5.706;2022-07-29T12:53:31;3.67;;;2.28;;
42714;SDS011;28351;51.480;5.706;2022-07-29T12:55:58;4.00;;;2.78;;
42714;SDS011;28351;51.480;5.706;2022-07-29T12:58:39;3.53;;;2.70;;
42714;SDS011;28351;51.480;5.706;2022-07-29T13:01:07;3.63;;;2.80;;
42714;SDS011;28351;51.480;5.706;2022-07-29T13:06:32;5.82;;;3.08;;
42714;SDS011;28351;51.480;5.706;2022-07-29T13:11:33;3.33;;;2.80;;
42714;SDS011;28351;51.480;5.706;2022-07-29T13:14:00;2.45;;;2.25;;
42714;SDS011;28351;51.480;5.706;2022-07-29T13:16:26;3.22;;;1.90;;
42714;SDS011;28351;51.480;5.706;2022-07-29T13:19:08;2.83;;;1.92;;
42714;SDS011;28351;51.480;5.706;2022-07-29T13:21:36;3.20;;;2.53;;
42714;SDS011;28351;51.480;5.706;2022-07-29T13:24:04;3.28;;;2.33;;
42714;SDS011;28351;51.480;5.706;2022-07-29T13:26:30;2.92;;;1.83;;
42714;SDS011;28351;51.480;5.706;2022-07-29T13:28:56;3.78;;;2.08;;
42714;SDS011;28351;51.480;5.706;2022-07-29T13:31:22;2.95;;;2.33;;
42714;SDS011;28351;51.480;5.706;2022-07-29T13:33:48;2.40;;;1.65;;
42714;SDS011;28351;51.480;5.706;2022-07-29T13:36:16;4.43;;;2.00;;
42714;SDS011;28351;51.480;5.706;2022-07-29T13:38:42;2.72;;;1.92;;
42714;SDS011;28351;51.480;5.706;2022-07-29T13:41:08;4.15;;;1.83;;
42714;SDS011;28351;51.480;5.706;2022-07-29T13:43:34;3.03;;;1.75;;
42714;SDS011;28351;51.480;5.706;2022-07-29T13:45:59;2.25;;;1.65;;
42714;SDS011;28351;51.480;5.706;2022-07-29T13:48:25;2.20;;;1.80;;
42714;SDS011;28351;51.480;5.706;2022-07-29T13:50:50;3.42;;;2.50;;
42714;SDS011;28351;51.480;5.706;2022-07-29T13:53:16;3.45;;;2.50;;
42714;SDS011;28351;51.480;5.706;2022-07-29T13:55:42;3.83;;;2.30;;
42714;SDS011;28351;51.480;5.706;2022-07-29T13:58:07;5.22;;;2.70;;
42714;SDS011;28351;51.480;5.706;2022-07-29T14:00:33;3.50;;;2.83;;
42714;SDS011;28351;51.480;5.706;2022-07-29T14:02:58;4.93;;;2.20;;
42714;SDS011;28351;51.480;5.706;2022-07-29T14:05:24;3.78;;;2.50;;
42714;SDS011;28351;51.480;5.706;2022-07-29T14:07:49;3.72;;;1.90;;
42714;SDS011;28351;51.480;5.706;2022-07-29T14:10:15;2.63;;;2.30;;
42714;SDS011;28351;51.480;5.706;2022-07-29T14:12:41;5.00;;;1.85;;
42714;SDS011;28351;51.480;5.706;2022-07-29T14:15:07;3.47;;;2.38;;
42714;SDS011;28351;51.480;5.706;2022-07-29T14:17:33;3.10;;;2.05;;
42714;SDS011;28351;51.480;5.706;2022-07-29T14:19:59;2.45;;;1.90;;
42714;SDS011;28351;51.480;5.706;2022-07-29T14:22:24;2.47;;;2.08;;
42714;SDS011;28351;51.480;5.706;2022-07-29T14:24:50;4.10;;;2.00;;
42714;SDS011;28351;51.480;5.706;2022-07-29T14:27:16;3.00;;;2.10;;
42714;SDS011;28351;51.480;5.706;2022-07-29T14:29:41;3.80;;;2.45;;
42714;SDS011;28351;51.480;5.706;2022-07-29T14:32:07;3.20;;;2.13;;
42714;SDS011;28351;51.480;5.706;2022-07-29T14:34:35;3.03;;;1.85;;
42714;SDS011;28351;51.480;5.706;2022-07-29T14:37:02;4.87;;;2.10;;
42714;SDS011;28351;51.480;5.706;2022-07-29T14:39:30;3.85;;;2.58;;
42714;SDS011;28351;51.480;5.706;2022-07-29T14:41:56;2.55;;;1.70;;
42714;SDS011;28351;51.480;5.706;2022-07-29T14:44:23;3.05;;;2.00;;
42714;SDS011;28351;51.480;5.706;2022-07-29T14:46:49;3.05;;;1.35;;
42714;SDS011;28351;51.480;5.706;2022-07-29T14:49:14;1.98;;;1.52;;
42714;SDS011;28351;51.480;5.706;2022-07-29T14:51:40;1.92;;;1.48;;
42714;SDS011;28351;51.480;5.706;2022-07-29T14:54:06;1.75;;;1.42;;
42714;SDS011;28351;51.480;5.706;2022-07-29T14:56:32;2.08;;;1.40;;
42714;SDS011;28351;51.480;5.706;2022-07-29T14:58:57;2.95;;;1.88;;
42714;SDS011;28351;51.480;5.706;2022-07-29T15:01:23;3.20;;;1.63;;
42714;SDS011;28351;51.480;5.706;2022-07-29T15:03:49;3.45;;;1.55;;
42714;SDS011;28351;51.480;5.706;2022-07-29T15:06:15;3.20;;;1.60;;
42714;SDS011;28351;51.480;5.706;2022-07-29T15:08:41;3.75;;;1.70;;
42714;SDS011;28351;51.480;5.706;2022-07-29T15:11:09;3.72;;;1.52;;
42714;SDS011;28351;51.480;5.706;2022-07-29T15:13:34;2.95;;;1.70;;
42714;SDS011;28351;51.480;5.706;2022-07-29T15:16:00;2.38;;;1.70;;
42714;SDS011;28351;51.480;5.706;2022-07-29T15:18:26;2.25;;;1.45;;
42714;SDS011;28351;51.480;5.706;2022-07-29T15:20:51;1.90;;;1.50;;
42714;SDS011;28351;51.480;5.706;2022-07-29T15:23:17;3.95;;;1.75;;
42714;SDS011;28351;51.480;5.706;2022-07-29T15:25:43;2.83;;;1.48;;
42714;SDS011;28351;51.480;5.706;2022-07-29T15:28:08;3.75;;;1.80;;
42714;SDS011;28351;51.480;5.706;2022-07-29T15:30:34;3.20;;;1.58;;
42714;SDS011;28351;51.480;5.706;2022-07-29T15:33:05;2.92;;;1.75;;
42714;SDS011;28351;51.480;5.706;2022-07-29T15:35:31;1.92;;;1.42;;
42714;SDS011;28351;51.480;5.706;2022-07-29T15:37:57;3.78;;;1.90;;
42714;SDS011;28351;51.480;5.706;2022-07-29T15:40:23;2.65;;;1.92;;
42714;SDS011;28351;51.480;5.706;2022-07-29T15:42:49;3.97;;;2.08;;
42714;SDS011;28351;51.480;5.706;2022-07-29T15:45:14;3.30;;;2.00;;
42714;SDS011;28351;51.480;5.706;2022-07-29T15:47:40;2.30;;;2.00;;
42714;SDS011;28351;51.480;5.706;2022-07-29T15:50:06;3.40;;;1.77;;